sensor_id;sensor_type;location;lat;lon;timestamp;P1;durP1;ratioP1;P2;durP2;ratioP2
78824;SDS011;68176;45.554;10.220;2024-03-25T00:00:50;2.08;;;0.93;;
78824;SDS011;68176;45.554;10.220;2024-03-25T00:03:20;1.02;;;0.57;;
78824;SDS011;68176;45.554;10.220;2024-03-25T00:05:50;1.30;;;0.50;;
78824;SDS011;68176;45.554;10.220;2024-03-25T00:08:20;1.80;;;0.85;;
78824;SDS011;68176;45.554;10.220;2024-03-25T00:10:50;1.63;;;0.70;;
78824;SDS011;68176;45.554;10.220;2024-03-25T00:13:20;2.28;;;0.55;;
78824;SDS011;68176;45.554;10.220;2024-03-25T00:15:50;1.70;;;0.60;;
78824;SDS011;68176;45.554;10.220;2024-03-25T00:18:20;1.58;;;0.82;;
78824;SDS011;68176;45.554;10.220;2024-03-25T00:20:50;1.88;;;0.90;;
78824;SDS011;68176;45.554;10.220;2024-03-25T00:23:20;1.73;;;0.75;;
78824;SDS011;68176;45.554;10.220;2024-03-25T00:25:50;3.10;;;1.10;;
78824;SDS011;68176;45.554;10.220;2024-03-25T00:28:20;1.60;;;0.63;;
78824;SDS011;68176;45.554;10.220;2024-03-25T00:30:50;1.98;;;0.90;;
78824;SDS011;68176;45.554;10.220;2024-03-25T00:33:20;1.60;;;0.65;;
78824;SDS011;68176;45.554;10.220;2024-03-25T00:35:50;1.50;;;0.77;;
78824;SDS011;68176;45.554;10.220;2024-03-25T00:38:20;1.98;;;0.88;;
78824;SDS011;68176;45.554;10.220;2024-03-25T00:40:50;2.30;;;0.98;;
78824;SDS011;68176;45.554;10.220;2024-03-25T00:43:20;2.10;;;0.85;;
78824;SDS011;68176;45.554;10.220;2024-03-25T00:45:50;1.25;;;0.65;;
78824;SDS011;68176;45.554;10.220;2024-03-25T00:48:20;1.75;;;1.00;;
78824;SDS011;68176;45.554;10.220;2024-03-25T00:50:50;1.23;;;0.55;;
78824;SDS011;68176;45.554;10.220;2024-03-25T00:53:20;1.38;;;0.68;;
78824;SDS011;68176;45.554;10.220;2024-03-25T00:55:50;1.55;;;0.65;;
78824;SDS011;68176;45.554;10.220;2024-03-25T00:58:20;1.25;;;0.50;;
78824;SDS011;68176;45.554;10.220;2024-03-25T01:00:50;1.83;;;0.77;;
78824;SDS011;68176;45.554;10.220;2024-03-25T01:03:20;1.35;;;0.63;;
78824;SDS011;68176;45.554;10.220;2024-03-25T01:05:50;1.48;;;0.63;;
78824;SDS011;68176;45.554;10.220;2024-03-25T01:08:20;1.30;;;0.50;;
78824;SDS011;68176;45.554;10.220;2024-03-25T01:10:50;1.40;;;0.70;;
78824;SDS011;68176;45.554;10.220;2024-03-25T01:13:20;1.90;;;1.13;;
78824;SDS011;68176;45.554;10.220;2024-03-25T01:15:50;1.80;;;0.50;;
78824;SDS011;68176;45.554;10.220;2024-03-25T01:18:20;1.35;;;0.50;;
78824;SDS011;68176;45.554;10.220;2024-03-25T01:20:50;1.50;;;0.70;;
78824;SDS011;68176;45.554;10.220;2024-03-25T01:23:20;0.90;;;0.32;;
78824;SDS011;68176;45.554;10.220;2024-03-25T01:25:50;1.65;;;0.77;;
78824;SDS011;68176;45.554;10.220;2024-03-25T01:28:20;1.60;;;0.70;;
78824;SDS011;68176;45.554;10.220;2024-03-25T01:30:50;2.13;;;0.77;;
78824;SDS011;68176;45.554;10.220;2024-03-25T01:33:20;2.50;;;0.68;;
78824;SDS011;68176;45.554;10.220;2024-03-25T01:35:50;1.63;;;0.90;;
78824;SDS011;68176;45.554;10.220;2024-03-25T01:38:21;1.02;;;0.40;;
78824;SDS011;68176;45.554;10.220;2024-03-25T01:40:50;1.15;;;0.52;;
78824;SDS011;68176;45.554;10.220;2024-03-25T01:43:20;2.33;;;0.88;;
78824;SDS011;68176;45.554;10.220;2024-03-25T01:45:50;1.33;;;0.70;;
78824;SDS011;68176;45.554;10.220;2024-03-25T01:48:20;1.83;;;0.38;;
78824;SDS011;68176;45.554;10.220;2024-03-25T01:50:50;1.25;;;0.50;;
78824;SDS011;68176;45.554;10.220;2024-03-25T01:53:20;2.05;;;1.05;;
78824;SDS011;68176;45.554;10.220;2024-03-25T01:55:51;1.45;;;0.80;;
78824;SDS011;68176;45.554;10.220;2024-03-25T01:58:20;1.42;;;0.68;;
78824;SDS011;68176;45.554;10.220;2024-03-25T02:00:50;1.92;;;0.75;;
78824;SDS011;68176;45.554;10.220;2024-03-25T02:03:21;1.73;;;0.60;;
78824;SDS011;68176;45.554;10.220;2024-03-25T02:05:50;1.90;;;0.82;;
78824;SDS011;68176;45.554;10.220;2024-03-25T02:08:20;3.15;;;0.80;;
78824;SDS011;68176;45.554;10.220;2024-03-25T02:10:50;1.60;;;0.60;;
78824;SDS011;68176;45.554;10.220;2024-03-25T02:13:20;1.92;;;0.73;;
78824;SDS011;68176;45.554;10.220;2024-03-25T02:15:50;2.10;;;0.82;;
78824;SDS011;68176;45.554;10.220;2024-03-25T02:18:20;1.48;;;0.70;;
78824;SDS011;68176;45.554;10.220;2024-03-25T02:20:50;1.02;;;0.45;;
78824;SDS011;68176;45.554;10.220;2024-03-25T02:23:21;1.55;;;0.70;;
78824;SDS011;68176;45.554;10.220;2024-03-25T02:25:51;1.55;;;0.80;;
78824;SDS011;68176;45.554;10.220;2024-03-25T02:28:20;0.82;;;0.45;;
78824;SDS011;68176;45.554;10.220;2024-03-25T02:30:50;2.13;;;0.80;;
78824;SDS011;68176;45.554;10.220;2024-03-25T02:33:21;1.75;;;0.70;;
78824;SDS011;68176;45.554;10.220;2024-03-25T02:35:51;1.95;;;0.80;;
78824;SDS011;68176;45.554;10.220;2024-03-25T02:38:20;2.35;;;0.57;;
78824;SDS011;68176;45.554;10.220;2024-03-25T02:40:50;1.48;;;0.68;;
78824;SDS011;68176;45.554;10.220;2024-03-25T02:45:51;1.80;;;0.80;;
78824;SDS011;68176;45.554;10.220;2024-03-25T02:48:21;2.25;;;0.90;;
78824;SDS011;68176;45.554;10.220;2024-03-25T02:50:51;2.22;;;0.95;;
78824;SDS011;68176;45.554;10.220;2024-03-25T02:53:21;1.10;;;0.38;;
78824;SDS011;68176;45.554;10.220;2024-03-25T02:55:50;1.10;;;0.40;;
78824;SDS011;68176;45.554;10.220;2024-03-25T02:58:21;1.52;;;0.57;;
78824;SDS011;68176;45.554;10.220;2024-03-25T03:00:51;1.40;;;0.75;;
78824;SDS011;68176;45.554;10.220;2024-03-25T03:03:21;1.40;;;0.45;;
78824;SDS011;68176;45.554;10.220;2024-03-25T03:05:51;1.50;;;0.57;;
78824;SDS011;68176;45.554;10.220;2024-03-25T03:10:51;2.83;;;0.73;;
78824;SDS011;68176;45.554;10.220;2024-03-25T03:13:21;2.35;;;0.82;;
78824;SDS011;68176;45.554;10.220;2024-03-25T03:15:51;0.90;;;0.35;;
78824;SDS011;68176;45.554;10.220;2024-03-25T03:18:21;1.50;;;0.43;;
78824;SDS011;68176;45.554;10.220;2024-03-25T03:20:51;2.22;;;0.65;;
78824;SDS011;68176;45.554;10.220;2024-03-25T03:23:21;1.60;;;0.60;;
78824;SDS011;68176;45.554;10.220;2024-03-25T03:25:51;1.83;;;0.90;;
78824;SDS011;68176;45.554;10.220;2024-03-25T03:28:21;1.02;;;0.40;;
78824;SDS011;68176;45.554;10.220;2024-03-25T03:30:51;0.80;;;0.30;;
78824;SDS011;68176;45.554;10.220;2024-03-25T03:33:21;1.90;;;0.55;;
78824;SDS011;68176;45.554;10.220;2024-03-25T03:35:51;1.40;;;0.70;;
78824;SDS011;68176;45.554;10.220;2024-03-25T03:38:21;1.75;;;0.65;;
78824;SDS011;68176;45.554;10.220;2024-03-25T03:41:01;1.35;;;0.40;;
78824;SDS011;68176;45.554;10.220;2024-03-25T03:45:53;1.50;;;0.90;;
78824;SDS011;68176;45.554;10.220;2024-03-25T03:50:51;1.10;;;0.40;;
78824;SDS011;68176;45.554;10.220;2024-03-25T03:53:21;1.30;;;0.40;;
78824;SDS011;68176;45.554;10.220;2024-03-25T03:58:22;0.98;;;0.38;;
78824;SDS011;68176;45.554;10.220;2024-03-25T04:00:51;2.22;;;0.55;;
78824;SDS011;68176;45.554;10.220;2024-03-25T04:03:21;1.55;;;0.63;;
78824;SDS011;68176;45.554;10.220;2024-03-25T04:05:51;1.20;;;0.50;;
78824;SDS011;68176;45.554;10.220;2024-03-25T04:08:21;1.60;;;0.47;;
78824;SDS011;68176;45.554;10.220;2024-03-25T04:10:51;1.10;;;0.32;;
78824;SDS011;68176;45.554;10.220;2024-03-25T04:13:22;1.73;;;0.55;;
78824;SDS011;68176;45.554;10.220;2024-03-25T04:18:21;2.83;;;0.73;;
78824;SDS011;68176;45.554;10.220;2024-03-25T04:23:22;1.27;;;0.50;;
78824;SDS011;68176;45.554;10.220;2024-03-25T04:25:51;1.30;;;0.70;;
78824;SDS011;68176;45.554;10.220;2024-03-25T04:28:22;1.05;;;0.35;;
78824;SDS011;68176;45.554;10.220;2024-03-25T04:30:54;2.28;;;0.77;;
78824;SDS011;68176;45.554;10.220;2024-03-25T04:33:22;1.63;;;0.77;;
78824;SDS011;68176;45.554;10.220;2024-03-25T04:35:51;1.98;;;0.65;;
78824;SDS011;68176;45.554;10.220;2024-03-25T04:38:22;1.42;;;0.52;;
78824;SDS011;68176;45.554;10.220;2024-03-25T04:40:52;1.42;;;0.52;;
78824;SDS011;68176;45.554;10.220;2024-03-25T04:43:22;1.25;;;0.40;;
78824;SDS011;68176;45.554;10.220;2024-03-25T04:45:52;1.90;;;0.52;;
78824;SDS011;68176;45.554;10.220;2024-03-25T04:48:21;1.23;;;0.45;;
78824;SDS011;68176;45.554;10.220;2024-03-25T04:50:51;0.77;;;0.30;;
78824;SDS011;68176;45.554;10.220;2024-03-25T04:53:22;2.13;;;0.47;;
78824;SDS011;68176;45.554;10.220;2024-03-25T04:55:52;1.98;;;0.75;;
78824;SDS011;68176;45.554;10.220;2024-03-25T04:58:22;1.25;;;0.52;;
78824;SDS011;68176;45.554;10.220;2024-03-25T05:00:52;1.33;;;0.60;;
78824;SDS011;68176;45.554;10.220;2024-03-25T05:03:22;1.27;;;0.77;;
78824;SDS011;68176;45.554;10.220;2024-03-25T05:05:52;1.75;;;0.60;;
78824;SDS011;68176;45.554;10.220;2024-03-25T05:08:22;1.45;;;0.45;;
78824;SDS011;68176;45.554;10.220;2024-03-25T05:10:52;1.58;;;0.55;;
78824;SDS011;68176;45.554;10.220;2024-03-25T05:13:22;2.00;;;0.73;;
78824;SDS011;68176;45.554;10.220;2024-03-25T05:15:52;1.38;;;0.73;;
78824;SDS011;68176;45.554;10.220;2024-03-25T05:18:22;1.35;;;0.40;;
78824;SDS011;68176;45.554;10.220;2024-03-25T05:20:52;1.20;;;0.43;;
78824;SDS011;68176;45.554;10.220;2024-03-25T05:23:22;2.10;;;0.68;;
78824;SDS011;68176;45.554;10.220;2024-03-25T05:25:52;1.00;;;0.25;;
78824;SDS011;68176;45.554;10.220;2024-03-25T05:28:22;1.48;;;0.70;;
78824;SDS011;68176;45.554;10.220;2024-03-25T05:30:52;1.60;;;0.52;;
78824;SDS011;68176;45.554;10.220;2024-03-25T05:33:22;1.27;;;0.50;;
78824;SDS011;68176;45.554;10.220;2024-03-25T05:35:52;2.55;;;0.60;;
78824;SDS011;68176;45.554;10.220;2024-03-25T05:38:22;1.85;;;0.65;;
78824;SDS011;68176;45.554;10.220;2024-03-25T05:40:52;0.95;;;0.52;;
78824;SDS011;68176;45.554;10.220;2024-03-25T05:43:22;1.52;;;0.82;;
78824;SDS011;68176;45.554;10.220;2024-03-25T05:45:52;1.75;;;0.40;;
78824;SDS011;68176;45.554;10.220;2024-03-25T05:48:23;1.85;;;0.65;;
78824;SDS011;68176;45.554;10.220;2024-03-25T05:53:24;1.20;;;0.80;;
78824;SDS011;68176;45.554;10.220;2024-03-25T05:55:52;1.20;;;0.30;;
78824;SDS011;68176;45.554;10.220;2024-03-25T05:58:22;6.72;;;0.73;;
78824;SDS011;68176;45.554;10.220;2024-03-25T06:00:52;5.30;;;0.60;;
78824;SDS011;68176;45.554;10.220;2024-03-25T06:03:22;2.33;;;0.43;;
78824;SDS011;68176;45.554;10.220;2024-03-25T06:08:22;1.92;;;0.75;;
78824;SDS011;68176;45.554;10.220;2024-03-25T06:10:53;1.80;;;0.75;;
78824;SDS011;68176;45.554;10.220;2024-03-25T06:13:22;2.53;;;0.38;;
78824;SDS011;68176;45.554;10.220;2024-03-25T06:15:52;2.22;;;0.90;;
78824;SDS011;68176;45.554;10.220;2024-03-25T06:18:22;3.17;;;1.35;;
78824;SDS011;68176;45.554;10.220;2024-03-25T06:20:52;2.10;;;0.70;;
78824;SDS011;68176;45.554;10.220;2024-03-25T06:23:23;2.20;;;0.73;;
78824;SDS011;68176;45.554;10.220;2024-03-25T06:25:53;6.57;;;1.30;;
78824;SDS011;68176;45.554;10.220;2024-03-25T06:28:22;2.45;;;0.82;;
78824;SDS011;68176;45.554;10.220;2024-03-25T06:33:36;1.58;;;0.50;;
78824;SDS011;68176;45.554;10.220;2024-03-25T06:36:20;2.47;;;0.80;;
78824;SDS011;68176;45.554;10.220;2024-03-25T06:38:46;1.60;;;0.80;;
78824;SDS011;68176;45.554;10.220;2024-03-25T06:41:14;2.38;;;0.70;;
78824;SDS011;68176;45.554;10.220;2024-03-25T06:43:44;4.07;;;1.85;;
78824;SDS011;68176;45.554;10.220;2024-03-25T06:46:14;2.08;;;0.85;;
78824;SDS011;68176;45.554;10.220;2024-03-25T06:48:44;2.78;;;0.70;;
78824;SDS011;68176;45.554;10.220;2024-03-25T06:51:14;3.13;;;0.63;;
78824;SDS011;68176;45.554;10.220;2024-03-25T06:53:44;5.75;;;0.60;;
78824;SDS011;68176;45.554;10.220;2024-03-25T06:56:14;1.50;;;0.60;;
78824;SDS011;68176;45.554;10.220;2024-03-25T06:58:44;1.45;;;0.63;;
78824;SDS011;68176;45.554;10.220;2024-03-25T07:01:14;1.98;;;0.82;;
78824;SDS011;68176;45.554;10.220;2024-03-25T07:03:44;4.22;;;0.65;;
78824;SDS011;68176;45.554;10.220;2024-03-25T07:06:14;1.63;;;0.32;;
78824;SDS011;68176;45.554;10.220;2024-03-25T07:11:14;2.33;;;0.65;;
78824;SDS011;68176;45.554;10.220;2024-03-25T07:13:44;4.00;;;0.75;;
78824;SDS011;68176;45.554;10.220;2024-03-25T07:16:14;1.38;;;0.50;;
78824;SDS011;68176;45.554;10.220;2024-03-25T07:18:44;3.90;;;0.75;;
78824;SDS011;68176;45.554;10.220;2024-03-25T07:23:44;2.10;;;0.95;;
78824;SDS011;68176;45.554;10.220;2024-03-25T07:26:14;1.67;;;0.70;;
78824;SDS011;68176;45.554;10.220;2024-03-25T07:28:44;2.03;;;0.68;;
78824;SDS011;68176;45.554;10.220;2024-03-25T07:31:14;1.98;;;0.52;;
78824;SDS011;68176;45.554;10.220;2024-03-25T07:33:44;2.28;;;0.70;;
78824;SDS011;68176;45.554;10.220;2024-03-25T07:36:14;2.55;;;0.93;;
78824;SDS011;68176;45.554;10.220;2024-03-25T07:38:45;1.58;;;0.70;;
78824;SDS011;68176;45.554;10.220;2024-03-25T07:41:14;1.67;;;0.57;;
78824;SDS011;68176;45.554;10.220;2024-03-25T07:43:44;2.97;;;0.85;;
78824;SDS011;68176;45.554;10.220;2024-03-25T07:46:14;1.95;;;0.52;;
78824;SDS011;68176;45.554;10.220;2024-03-25T07:48:45;1.98;;;0.77;;
78824;SDS011;68176;45.554;10.220;2024-03-25T07:51:15;3.28;;;0.77;;
78824;SDS011;68176;45.554;10.220;2024-03-25T07:53:44;2.30;;;0.60;;
78824;SDS011;68176;45.554;10.220;2024-03-25T07:56:15;2.53;;;0.75;;
78824;SDS011;68176;45.554;10.220;2024-03-25T07:58:45;2.92;;;1.33;;
78824;SDS011;68176;45.554;10.220;2024-03-25T08:01:14;5.18;;;2.00;;
78824;SDS011;68176;45.554;10.220;2024-03-25T08:03:45;5.40;;;1.73;;
78824;SDS011;68176;45.554;10.220;2024-03-25T08:06:15;10.48;;;1.98;;
78824;SDS011;68176;45.554;10.220;2024-03-25T08:08:45;3.08;;;1.98;;
78824;SDS011;68176;45.554;10.220;2024-03-25T08:11:15;3.85;;;1.58;;
78824;SDS011;68176;45.554;10.220;2024-03-25T08:13:45;5.75;;;1.58;;
78824;SDS011;68176;45.554;10.220;2024-03-25T08:16:15;5.65;;;1.73;;
78824;SDS011;68176;45.554;10.220;2024-03-25T08:18:44;3.55;;;1.50;;
78824;SDS011;68176;45.554;10.220;2024-03-25T08:21:15;3.60;;;1.42;;
78824;SDS011;68176;45.554;10.220;2024-03-25T08:23:45;3.88;;;1.88;;
78824;SDS011;68176;45.554;10.220;2024-03-25T08:26:15;3.40;;;1.30;;
78824;SDS011;68176;45.554;10.220;2024-03-25T08:28:45;2.83;;;1.90;;
78824;SDS011;68176;45.554;10.220;2024-03-25T08:31:15;2.03;;;1.13;;
78824;SDS011;68176;45.554;10.220;2024-03-25T08:33:45;4.63;;;1.73;;
78824;SDS011;68176;45.554;10.220;2024-03-25T08:36:15;2.97;;;1.10;;
78824;SDS011;68176;45.554;10.220;2024-03-25T08:38:45;5.93;;;1.40;;
78824;SDS011;68176;45.554;10.220;2024-03-25T08:41:15;3.55;;;1.55;;
78824;SDS011;68176;45.554;10.220;2024-03-25T08:43:45;3.47;;;1.33;;
78824;SDS011;68176;45.554;10.220;2024-03-25T08:46:15;5.03;;;1.58;;
78824;SDS011;68176;45.554;10.220;2024-03-25T08:48:45;3.03;;;1.10;;
78824;SDS011;68176;45.554;10.220;2024-03-25T08:51:15;4.85;;;1.50;;
78824;SDS011;68176;45.554;10.220;2024-03-25T08:53:45;5.32;;;1.38;;
78824;SDS011;68176;45.554;10.220;2024-03-25T08:56:15;2.78;;;1.05;;
78824;SDS011;68176;45.554;10.220;2024-03-25T08:58:45;7.15;;;1.65;;
78824;SDS011;68176;45.554;10.220;2024-03-25T09:01:15;2.58;;;1.25;;
78824;SDS011;68176;45.554;10.220;2024-03-25T09:03:45;6.45;;;1.35;;
78824;SDS011;68176;45.554;10.220;2024-03-25T09:06:15;4.07;;;1.30;;
78824;SDS011;68176;45.554;10.220;2024-03-25T09:08:45;2.85;;;1.02;;
78824;SDS011;68176;45.554;10.220;2024-03-25T09:11:29;1.85;;;0.98;;
78824;SDS011;68176;45.554;10.220;2024-03-25T09:13:54;2.60;;;1.30;;
78824;SDS011;68176;45.554;10.220;2024-03-25T09:16:23;3.55;;;1.23;;
78824;SDS011;68176;45.554;10.220;2024-03-25T09:18:53;2.50;;;1.10;;
78824;SDS011;68176;45.554;10.220;2024-03-25T09:21:23;3.10;;;1.15;;
78824;SDS011;68176;45.554;10.220;2024-03-25T09:23:53;2.50;;;0.82;;
78824;SDS011;68176;45.554;10.220;2024-03-25T09:26:23;5.68;;;1.33;;
78824;SDS011;68176;45.554;10.220;2024-03-25T09:28:53;4.10;;;1.23;;
78824;SDS011;68176;45.554;10.220;2024-03-25T09:31:23;4.25;;;0.82;;
78824;SDS011;68176;45.554;10.220;2024-03-25T09:33:53;1.83;;;0.75;;
78824;SDS011;68176;45.554;10.220;2024-03-25T09:36:23;3.75;;;1.25;;
78824;SDS011;68176;45.554;10.220;2024-03-25T09:38:53;5.20;;;0.95;;
78824;SDS011;68176;45.554;10.220;2024-03-25T09:41:23;2.17;;;0.90;;
78824;SDS011;68176;45.554;10.220;2024-03-25T09:43:54;3.75;;;1.20;;
78824;SDS011;68176;45.554;10.220;2024-03-25T09:46:23;2.10;;;0.95;;
78824;SDS011;68176;45.554;10.220;2024-03-25T09:48:53;4.10;;;1.15;;
78824;SDS011;68176;45.554;10.220;2024-03-25T09:51:23;4.60;;;1.25;;
78824;SDS011;68176;45.554;10.220;2024-03-25T09:53:53;1.95;;;0.77;;
78824;SDS011;68176;45.554;10.220;2024-03-25T09:56:23;4.45;;;0.82;;
78824;SDS011;68176;45.554;10.220;2024-03-25T09:58:53;2.22;;;0.88;;
78824;SDS011;68176;45.554;10.220;2024-03-25T10:03:53;2.08;;;0.82;;
78824;SDS011;68176;45.554;10.220;2024-03-25T10:06:23;2.47;;;0.75;;
78824;SDS011;68176;45.554;10.220;2024-03-25T10:08:53;3.30;;;1.08;;
78824;SDS011;68176;45.554;10.220;2024-03-25T10:11:23;2.00;;;0.77;;
78824;SDS011;68176;45.554;10.220;2024-03-25T10:13:53;2.60;;;0.80;;
78824;SDS011;68176;45.554;10.220;2024-03-25T10:18:53;2.28;;;0.70;;
78824;SDS011;68176;45.554;10.220;2024-03-25T10:21:23;2.28;;;0.80;;
78824;SDS011;68176;45.554;10.220;2024-03-25T10:23:53;2.53;;;0.73;;
78824;SDS011;68176;45.554;10.220;2024-03-25T10:26:27;2.15;;;0.47;;
78824;SDS011;68176;45.554;10.220;2024-03-25T10:29:04;2.40;;;0.93;;
78824;SDS011;68176;45.554;10.220;2024-03-25T10:31:33;2.00;;;0.77;;
78824;SDS011;68176;45.554;10.220;2024-03-25T10:33:59;1.55;;;0.60;;
78824;SDS011;68176;45.554;10.220;2024-03-25T10:36:27;1.88;;;0.80;;
78824;SDS011;68176;45.554;10.220;2024-03-25T10:38:59;1.95;;;0.73;;
78824;SDS011;68176;45.554;10.220;2024-03-25T10:41:32;2.50;;;0.87;;
78824;SDS011;68176;45.554;10.220;2024-03-25T10:44:00;1.10;;;0.60;;
78824;SDS011;68176;45.554;10.220;2024-03-25T10:46:32;2.15;;;1.00;;
78824;SDS011;68176;45.554;10.220;2024-03-25T10:49:07;2.40;;;0.90;;
78824;SDS011;68176;45.554;10.220;2024-03-25T10:51:48;2.53;;;0.80;;
78824;SDS011;68176;45.554;10.220;2024-03-25T10:54:15;1.60;;;0.90;;
78824;SDS011;68176;45.554;10.220;2024-03-25T10:56:43;3.10;;;0.95;;
78824;SDS011;68176;45.554;10.220;2024-03-25T10:59:12;2.45;;;0.80;;
78824;SDS011;68176;45.554;10.220;2024-03-25T11:01:42;1.48;;;0.50;;
78824;SDS011;68176;45.554;10.220;2024-03-25T11:04:13;1.42;;;0.68;;
78824;SDS011;68176;45.554;10.220;2024-03-25T11:06:42;1.50;;;0.63;;
78824;SDS011;68176;45.554;10.220;2024-03-25T11:09:25;3.60;;;1.35;;
78824;SDS011;68176;45.554;10.220;2024-03-25T11:11:51;4.47;;;0.87;;
78824;SDS011;68176;45.554;10.220;2024-03-25T11:14:17;0.40;;;0.20;;
78824;SDS011;68176;45.554;10.220;2024-03-25T11:16:54;0.82;;;0.45;;
78824;SDS011;68176;45.554;10.220;2024-03-25T11:19:24;6.33;;;0.97;;
78824;SDS011;68176;45.554;10.220;2024-03-25T11:21:51;1.60;;;0.43;;
78824;SDS011;68176;45.554;10.220;2024-03-25T11:24:26;0.60;;;0.20;;
78824;SDS011;68176;45.554;10.220;2024-03-25T11:26:53;2.20;;;0.50;;
78824;SDS011;68176;45.554;10.220;2024-03-25T11:29:19;1.80;;;0.90;;
78824;SDS011;68176;45.554;10.220;2024-03-25T11:31:48;1.25;;;0.43;;
78824;SDS011;68176;45.554;10.220;2024-03-25T11:34:17;2.75;;;0.68;;
78824;SDS011;68176;45.554;10.220;2024-03-25T11:36:47;1.83;;;0.40;;
78824;SDS011;68176;45.554;10.220;2024-03-25T11:39:17;3.60;;;0.60;;
78824;SDS011;68176;45.554;10.220;2024-03-25T11:41:47;1.85;;;0.73;;
78824;SDS011;68176;45.554;10.220;2024-03-25T11:44:17;2.05;;;0.77;;
78824;SDS011;68176;45.554;10.220;2024-03-25T11:46:47;1.67;;;0.75;;
78824;SDS011;68176;45.554;10.220;2024-03-25T11:49:17;1.88;;;0.70;;
78824;SDS011;68176;45.554;10.220;2024-03-25T11:54:17;2.10;;;0.85;;
78824;SDS011;68176;45.554;10.220;2024-03-25T11:56:47;2.20;;;0.95;;
78824;SDS011;68176;45.554;10.220;2024-03-25T11:59:17;1.50;;;0.52;;
78824;SDS011;68176;45.554;10.220;2024-03-25T12:01:47;2.10;;;0.80;;
78824;SDS011;68176;45.554;10.220;2024-03-25T12:04:17;2.00;;;0.60;;
78824;SDS011;68176;45.554;10.220;2024-03-25T12:06:47;2.67;;;1.42;;
78824;SDS011;68176;45.554;10.220;2024-03-25T12:09:17;3.08;;;1.60;;
78824;SDS011;68176;45.554;10.220;2024-03-25T12:12:11;2.47;;;1.60;;
78824;SDS011;68176;45.554;10.220;2024-03-25T12:14:37;3.35;;;1.45;;
78824;SDS011;68176;45.554;10.220;2024-03-25T12:17:05;4.60;;;1.35;;
78824;SDS011;68176;45.554;10.220;2024-03-25T12:19:35;3.80;;;1.10;;
78824;SDS011;68176;45.554;10.220;2024-03-25T12:22:05;4.70;;;1.48;;
78824;SDS011;68176;45.554;10.220;2024-03-25T12:27:05;2.28;;;0.85;;
78824;SDS011;68176;45.554;10.220;2024-03-25T12:29:35;2.40;;;1.13;;
78824;SDS011;68176;45.554;10.220;2024-03-25T12:34:35;1.83;;;0.90;;
78824;SDS011;68176;45.554;10.220;2024-03-25T12:39:47;4.40;;;0.95;;
78824;SDS011;68176;45.554;10.220;2024-03-25T12:42:13;1.65;;;0.93;;
78824;SDS011;68176;45.554;10.220;2024-03-25T12:44:41;1.50;;;1.10;;
78824;SDS011;68176;45.554;10.220;2024-03-25T12:47:07;3.03;;;1.35;;
78824;SDS011;68176;45.554;10.220;2024-03-25T12:49:37;2.10;;;1.02;;
78824;SDS011;68176;45.554;10.220;2024-03-25T12:52:07;5.40;;;0.82;;
78824;SDS011;68176;45.554;10.220;2024-03-25T12:54:37;1.92;;;1.15;;
78824;SDS011;68176;45.554;10.220;2024-03-25T12:57:07;2.55;;;1.45;;
78824;SDS011;68176;45.554;10.220;2024-03-25T12:59:37;2.50;;;0.85;;
78824;SDS011;68176;45.554;10.220;2024-03-25T13:02:11;2.38;;;1.42;;
78824;SDS011;68176;45.554;10.220;2024-03-25T13:04:37;1.15;;;0.57;;
78824;SDS011;68176;45.554;10.220;2024-03-25T13:07:07;1.20;;;0.50;;
78824;SDS011;68176;45.554;10.220;2024-03-25T13:12:07;1.73;;;0.60;;
78824;SDS011;68176;45.554;10.220;2024-03-25T13:14:37;1.67;;;0.63;;
78824;SDS011;68176;45.554;10.220;2024-03-25T13:17:07;1.88;;;0.75;;
78824;SDS011;68176;45.554;10.220;2024-03-25T13:22:07;5.97;;;0.65;;
78824;SDS011;68176;45.554;10.220;2024-03-25T13:24:37;1.20;;;0.60;;
78824;SDS011;68176;45.554;10.220;2024-03-25T13:27:07;1.58;;;0.52;;
78824;SDS011;68176;45.554;10.220;2024-03-25T13:29:37;2.28;;;0.55;;
78824;SDS011;68176;45.554;10.220;2024-03-25T13:32:07;2.38;;;0.55;;
78824;SDS011;68176;45.554;10.220;2024-03-25T13:34:40;1.83;;;0.82;;
78824;SDS011;68176;45.554;10.220;2024-03-25T13:37:07;3.22;;;0.95;;
78824;SDS011;68176;45.554;10.220;2024-03-25T13:42:07;1.40;;;0.60;;
78824;SDS011;68176;45.554;10.220;2024-03-25T13:44:37;2.75;;;1.00;;
78824;SDS011;68176;45.554;10.220;2024-03-25T13:47:10;1.80;;;0.55;;
78824;SDS011;68176;45.554;10.220;2024-03-25T13:49:37;2.70;;;0.80;;
78824;SDS011;68176;45.554;10.220;2024-03-25T13:52:07;1.67;;;0.52;;
78824;SDS011;68176;45.554;10.220;2024-03-25T13:54:37;1.17;;;0.57;;
78824;SDS011;68176;45.554;10.220;2024-03-25T13:57:07;2.67;;;0.88;;
78824;SDS011;68176;45.554;10.220;2024-03-25T14:02:07;4.20;;;1.17;;
78824;SDS011;68176;45.554;10.220;2024-03-25T14:04:37;1.80;;;0.80;;
78824;SDS011;68176;45.554;10.220;2024-03-25T14:07:10;1.98;;;0.40;;
78824;SDS011;68176;45.554;10.220;2024-03-25T14:12:07;1.63;;;0.68;;
78824;SDS011;68176;45.554;10.220;2024-03-25T14:14:37;1.15;;;0.55;;
78824;SDS011;68176;45.554;10.220;2024-03-25T14:17:07;1.80;;;0.70;;
78824;SDS011;68176;45.554;10.220;2024-03-25T14:19:37;1.27;;;0.40;;
78824;SDS011;68176;45.554;10.220;2024-03-25T14:22:07;1.52;;;0.63;;
78824;SDS011;68176;45.554;10.220;2024-03-25T14:24:37;0.98;;;0.43;;
78824;SDS011;68176;45.554;10.220;2024-03-25T14:27:07;1.40;;;0.35;;
78824;SDS011;68176;45.554;10.220;2024-03-25T14:29:37;1.73;;;0.38;;
78824;SDS011;68176;45.554;10.220;2024-03-25T14:32:08;1.80;;;0.35;;
78824;SDS011;68176;45.554;10.220;2024-03-25T14:34:37;0.98;;;0.28;;
78824;SDS011;68176;45.554;10.220;2024-03-25T14:37:07;1.25;;;0.15;;
78824;SDS011;68176;45.554;10.220;2024-03-25T14:39:37;3.22;;;0.70;;
78824;SDS011;68176;45.554;10.220;2024-03-25T14:42:08;0.52;;;0.28;;
78824;SDS011;68176;45.554;10.220;2024-03-25T14:44:37;1.55;;;0.45;;
78824;SDS011;68176;45.554;10.220;2024-03-25T14:47:07;0.82;;;0.30;;
78824;SDS011;68176;45.554;10.220;2024-03-25T14:49:37;0.82;;;0.20;;
78824;SDS011;68176;45.554;10.220;2024-03-25T14:52:07;1.13;;;0.13;;
78824;SDS011;68176;45.554;10.220;2024-03-25T14:54:37;1.70;;;0.22;;
78824;SDS011;68176;45.554;10.220;2024-03-25T14:57:10;2.05;;;0.40;;
78824;SDS011;68176;45.554;10.220;2024-03-25T14:59:37;1.60;;;0.30;;
78824;SDS011;68176;45.554;10.220;2024-03-25T15:02:07;0.77;;;0.20;;
78824;SDS011;68176;45.554;10.220;2024-03-25T15:04:37;0.80;;;0.20;;
78824;SDS011;68176;45.554;10.220;2024-03-25T15:07:09;0.40;;;0.30;;
78824;SDS011;68176;45.554;10.220;2024-03-25T15:09:37;0.80;;;0.28;;
78824;SDS011;68176;45.554;10.220;2024-03-25T15:12:07;0.82;;;0.20;;
78824;SDS011;68176;45.554;10.220;2024-03-25T15:14:37;0.88;;;0.22;;
78824;SDS011;68176;45.554;10.220;2024-03-25T15:17:07;0.52;;;0.10;;
78824;SDS011;68176;45.554;10.220;2024-03-25T15:19:37;0.60;;;0.13;;
78824;SDS011;68176;45.554;10.220;2024-03-25T15:22:07;0.60;;;0.32;;
78824;SDS011;68176;45.554;10.220;2024-03-25T15:24:37;0.20;;;0.00;;
78824;SDS011;68176;45.554;10.220;2024-03-25T15:27:08;3.38;;;0.25;;
78824;SDS011;68176;45.554;10.220;2024-03-25T15:29:38;0.75;;;0.20;;
78824;SDS011;68176;45.554;10.220;2024-03-25T15:32:07;0.88;;;0.30;;
78824;SDS011;68176;45.554;10.220;2024-03-25T15:34:37;2.65;;;0.43;;
78824;SDS011;68176;45.554;10.220;2024-03-25T15:37:07;2.20;;;0.40;;
78824;SDS011;68176;45.554;10.220;2024-03-25T15:39:38;3.38;;;0.68;;
78824;SDS011;68176;45.554;10.220;2024-03-25T15:42:07;3.15;;;0.63;;
78824;SDS011;68176;45.554;10.220;2024-03-25T15:44:37;1.65;;;0.52;;
78824;SDS011;68176;45.554;10.220;2024-03-25T15:47:08;5.78;;;0.55;;